Time;durP1;ratioP1;P1;durP2;ratioP2;P2;SDS_P1;SDS_P2;PMS_P1;PMS_P2;Temp;Humidity;BMP_temperature;BMP_pressure;BME280_temperature;BME280_humidity;BME280_pressure;Samples;Min_cycle;Max_cycle;Signal;HPM_P1;HPM_P2
2024/04/18 00:02:01;;;;;;;3.95;3.47;;;;;;;3.79;100.00;149622.56;11139999;26;20004;-72
2024/04/18 00:07:03;;;;;;;4.35;3.25;;;;;;;3.73;100.00;149605.88;11139304;26;20008;-71
2024/04/18 00:12:05;;;;;;;3.80;3.42;;;;;;;3.68;100.00;149594.34;11139382;26;19996;-72
2024/04/18 00:17:19;;;;;;;4.00;3.20;;;;;;;3.60;100.00;149572.50;11139418;26;20137;-71
2024/04/18 00:22:21;;;;;;;4.45;2.70;;;;;;;3.58;100.00;149568.63;11138828;26;20042;-71
2024/04/18 00:27:36;;;;;;;2.83;2.58;;;;;;;3.47;100.00;149541.69;11138353;26;20008;-71
2024/04/18 00:32:38;;;;;;;3.17;2.88;;;;;;;3.45;100.00;149535.25;11138543;26;20011;-72
2024/04/18 00:37:58;;;;;;;5.90;4.07;;;;;;;3.42;100.00;149528.84;11139227;26;20166;-73
2024/04/18 00:43:14;;;;;;;3.53;3.10;;;;;;;3.33;100.00;149505.75;11139137;26;20040;-72
2024/04/18 00:48:16;;;;;;;6.90;4.15;;;;;;;3.24;100.00;149483.91;11138880;26;20015;-72
2024/04/18 00:53:21;;;;;;;4.63;4.22;;;;;;;3.31;100.00;149499.31;11138596;26;20000;-72
2024/04/18 00:58:26;;;;;;;4.88;4.45;;;;;;;3.40;100.00;149523.69;11138510;26;20004;-72
2024/04/18 01:03:49;;;;;;;5.03;4.63;;;;;;;3.41;100.00;149526.28;11137805;26;20006;-72
2024/04/18 01:09:11;;;;;;;4.28;3.88;;;;;;;3.40;100.00;149523.69;11137083;26;20004;-72
2024/04/18 01:14:33;;;;;;;4.57;4.18;;;;;;;3.31;100.00;149500.56;11137703;26;19993;-71
2024/04/18 01:19:35;;;;;;;4.75;4.35;;;;;;;3.07;100.00;149439.00;11137736;26;20089;-71
2024/04/18 01:24:37;;;;;;;5.35;4.85;;;;;;;3.07;100.00;149440.28;11137309;26;20004;-71
2024/04/18 01:29:39;;;;;;;4.85;4.35;;;;;;;3.10;100.00;149446.66;11136955;26;20016;-71
2024/04/18 01:34:41;;;;;;;5.25;4.50;;;;;;;3.17;100.00;149464.66;11136591;26;20424;-71
2024/04/18 01:39:50;;;;;;;4.80;4.35;;;;;;;3.15;100.00;149459.53;11135374;26;20016;-71
2024/04/18 01:44:52;;;;;;;5.32;4.82;;;;;;;3.08;100.00;149441.53;11136814;26;20005;-71
2024/04/18 01:50:12;;;;;;;4.95;4.45;;;;;;;2.82;100.00;149376.09;11137167;26;20352;-71
2024/04/18 01:55:15;;;;;;;5.32;4.80;;;;;;;2.73;100.00;149355.56;11134998;26;20000;-72
2024/04/18 02:00:17;;;;;;;5.90;5.30;;;;;;;2.80;100.00;149370.97;11134221;26;20027;-71
2024/04/18 02:05:19;;;;;;;5.55;5.05;;;;;;;2.68;100.00;149342.72;11136054;26;20012;-71
2024/04/18 02:10:43;;;;;;;5.38;4.88;;;;;;;2.70;100.00;149347.88;11136097;26;20472;-71
2024/04/18 02:16:05;;;;;;;6.38;5.32;;;;;;;2.87;100.00;149388.91;11136063;26;20000;-71
2024/04/18 02:21:25;;;;;;;5.38;4.88;;;;;;;2.76;100.00;149362.00;11136245;26;20353;-71
2024/04/18 02:26:27;;;;;;;6.43;5.38;;;;;;;2.85;100.00;149383.81;11135452;26;20036;-71
2024/04/18 02:31:29;;;;;;;6.40;5.35;;;;;;;2.90;100.00;149397.91;11133484;26;20023;-71
2024/04/18 02:36:31;;;;;;;5.30;4.80;;;;;;;2.49;100.00;149295.28;11134825;26;20072;-71
2024/04/18 02:41:46;;;;;;;5.65;5.15;;;;;;;2.60;100.00;149320.91;11135186;26;20101;-71
2024/04/18 02:47:00;;;;;;;5.88;5.38;;;;;;;2.62;100.00;149326.06;11133327;26;20005;-71
2024/04/18 02:52:03;;;;;;;6.85;6.25;;;;;;;2.47;100.00;149290.13;11136468;26;20041;-72
2024/04/18 02:57:17;;;;;;;6.55;5.95;;;;;;;2.58;100.00;149315.81;11142120;26;20008;-71
2024/04/18 03:02:19;;;;;;;6.75;5.78;;;;;;;2.31;100.00;149247.81;11142018;26;20000;-71
2024/04/18 03:07:21;;;;;;;5.13;4.72;;;;;;;2.22;100.00;149227.28;11141977;26;20000;-72
2024/04/18 03:12:23;;;;;;;9.70;6.38;;;;;;;2.21;100.00;149223.41;11141554;26;20010;-72
2024/04/18 03:17:25;;;;;;;6.38;5.78;;;;;;;2.16;100.00;149211.88;11141528;26;20102;-71
2024/04/18 03:22:56;;;;;;;6.47;5.88;;;;;;;2.18;100.00;149217.03;11141991;26;20090;-72
2024/04/18 03:27:58;;;;;;;5.53;5.03;;;;;;;2.24;100.00;149231.13;11135198;26;20040;-71
2024/04/18 03:33:00;;;;;;;7.25;6.47;;;;;;;2.25;100.00;149234.94;11076952;26;20500;-71
2024/04/18 03:38:04;;;;;;;6.75;5.88;;;;;;;2.45;100.00;149285.00;11135803;26;20000;-71
2024/04/18 03:43:06;;;;;;;6.25;5.65;;;;;;;2.19;100.00;149219.56;11134105;26;20000;-72
2024/04/18 03:48:08;;;;;;;6.80;6.22;;;;;;;2.12;100.00;149201.59;11135888;26;20023;-71
2024/04/18 03:53:20;;;;;;;7.13;6.43;;;;;;;2.04;100.00;149181.13;11135196;26;20011;-71
2024/04/18 03:58:42;;;;;;;8.13;7.32;;;;;;;2.05;100.00;149183.69;11134410;26;20010;-71
2024/04/18 04:03:44;;;;;;;5.85;5.35;;;;;;;2.05;100.00;149183.69;11136998;26;20023;-72
2024/04/18 04:08:46;;;;;;;6.82;6.22;;;;;;;2.01;100.00;149174.69;11139496;26;20051;-72
2024/04/18 04:13:48;;;;;;;7.05;6.35;;;;;;;2.33;100.00;149254.22;11141102;26;20000;-72
2024/04/18 04:18:54;;;;;;;6.72;6.03;;;;;;;2.10;100.00;149195.22;11140766;26;20008;-71
2024/04/18 04:24:15;;;;;;;8.93;5.47;;;;;;;1.92;100.00;149150.34;11142799;26;20411;-72
2024/04/18 04:29:23;;;;;;;6.53;5.30;;;;;;;1.87;100.00;149138.81;11140008;26;20450;-71
2024/04/18 04:34:25;;;;;;;7.30;6.50;;;;;;;2.01;100.00;149174.69;11140270;26;19996;-71
2024/04/18 04:39:27;;;;;;;8.40;5.97;;;;;;;2.17;100.00;149214.47;11139364;26;20004;-71
2024/04/18 04:44:49;;;;;;;7.30;6.65;;;;;;;2.17;100.00;149214.47;11139184;26;20016;-72
2024/04/18 04:50:03;;;;;;;5.90;5.40;;;;;;;2.13;100.00;149204.22;11139876;26;20032;-71
2024/04/18 04:55:11;;;;;;;8.00;5.50;;;;;;;2.15;100.00;149208.03;11139500;26;20414;-72
2024/04/18 05:00:13;;;;;;;6.82;6.13;;;;;;;2.20;100.00;149220.84;11138173;26;20015;-71
2024/04/18 05:05:30;;;;;;;7.15;5.35;;;;;;;2.30;100.00;149246.50;11137581;26;20008;-72
2024/04/18 05:10:43;;;;;;;6.45;5.85;;;;;;;2.29;100.00;149243.94;11139570;26;20081;-72
2024/04/18 05:15:45;;;;;;;6.30;5.70;;;;;;;2.39;100.00;149269.63;11138812;26;20046;-71
2024/04/18 05:21:03;;;;;;;6.10;5.50;;;;;;;2.57;100.00;149314.53;11138384;26;20008;-71
2024/04/18 05:26:31;;;;;;;6.35;5.75;;;;;;;2.73;100.00;149354.28;11137910;26;20395;-71
2024/04/18 05:31:34;;;;;;;5.78;5.28;;;;;;;2.98;100.00;149417.16;11138073;26;20023;-71
2024/04/18 05:36:39;;;;;;;10.43;7.65;;;;;;;3.22;100.00;149477.47;11137842;26;20402;-72
2024/04/18 05:41:41;;;;;;;4.97;4.50;;;;;;;3.48;100.00;149542.97;11138996;26;20032;-72
2024/04/18 05:47:02;;;;;;;3.28;2.97;;;;;;;3.95;100.00;149661.13;11138918;26;20344;-71
2024/04/18 05:52:04;;;;;;;3.03;2.67;;;;;;;4.18;100.00;149720.19;11138841;26;20008;-71
2024/04/18 05:57:06;;;;;;;2.85;2.22;;;;;;;4.37;100.00;149766.44;11138668;26;20008;-72
2024/04/18 06:02:26;;;;;;;3.22;2.92;;;;;;;4.62;100.00;149829.41;11138713;26;20016;-71
2024/04/18 06:07:28;;;;;;;4.03;3.45;;;;;;;4.86;100.00;149891.09;11138075;26;20007;-71
2024/04/18 06:12:30;;;;;;;3.45;3.03;;;;;;;5.10;100.00;149950.25;11138024;26;20033;-71
2024/04/18 06:17:32;;;;;;;3.45;3.15;;;;;;;5.24;100.00;149986.25;11137882;26;20340;-72
2024/04/18 06:22:34;;;;;;;2.97;2.63;;;;;;;4.96;100.00;149916.84;11136903;26;20012;-71
2024/04/18 06:27:54;;;;;;;3.67;3.38;;;;;;;4.65;100.00;149838.44;11143606;26;20407;-71
2024/04/18 06:32:57;;;;;;;3.88;3.03;;;;;;;4.84;100.00;149885.97;11143494;26;20008;-71
2024/04/18 06:37:59;;;;;;;2.95;2.65;;;;;;;4.70;100.00;149851.28;11145031;26;20104;-72
2024/04/18 06:43:01;;;;;;;3.38;2.58;;;;;;;4.73;100.00;149857.66;11143127;26;20007;-71
2024/04/18 06:48:04;;;;;;;3.15;2.75;;;;;;;4.61;100.00;149828.13;11143048;26;20044;-73
2024/04/18 06:53:06;;;;;;;2.67;2.45;;;;;;;4.60;100.00;149825.53;11150001;26;20024;-71
2024/04/18 06:58:08;;;;;;;3.20;2.90;;;;;;;4.42;100.00;149779.28;11177988;26;20027;-71
2024/04/18 07:03:12;;;;;;;3.55;2.90;;;;;;;4.68;100.00;149846.09;11141493;26;20004;-71
2024/04/18 07:08:26;;;;;;;3.47;3.17;;;;;;;4.85;100.00;149888.53;11140307;26;20086;-70
2024/04/18 07:13:29;;;;;;;5.15;4.65;;;;;;;5.07;100.00;149945.09;11142596;26;20001;-71
2024/04/18 07:18:34;;;;;;;5.90;5.40;;;;;;;5.70;98.06;150101.97;11142946;26;20105;-71
2024/04/18 07:23:37;;;;;;;5.18;4.68;;;;;;;5.68;96.66;150098.13;11142144;26;20254;-71
2024/04/18 07:28:38;;;;;;;4.47;3.90;;;;;;;5.66;97.15;150091.66;11141826;26;20078;-71
2024/04/18 07:33:40;;;;;;;3.80;3.45;;;;;;;5.50;96.75;150053.13;11142214;26;20006;-71
2024/04/18 07:38:51;;;;;;;4.05;3.75;;;;;;;5.72;94.65;150107.13;11141185;26;20351;-71
2024/04/18 07:43:53;;;;;;;4.05;3.55;;;;;;;5.51;96.36;150055.66;11141814;26;20004;-71
2024/04/18 07:48:55;;;;;;;4.13;3.72;;;;;;;5.90;93.41;150152.16;11140621;26;20008;-73
2024/04/18 07:53:57;;;;;;;4.05;3.75;;;;;;;5.91;94.00;150156.00;11143243;26;20011;-71
2024/04/18 07:58:59;;;;;;;3.97;3.58;;;;;;;6.06;96.70;150194.66;11143393;26;20381;-71
2024/04/18 08:04:02;;;;;;;3.50;3.20;;;;;;;5.99;92.93;150175.38;11141462;26;20012;-72
2024/04/18 08:09:24;;;;;;;4.43;3.33;;;;;;;5.62;95.03;150081.38;11143525;26;20004;-72
2024/04/18 08:14:31;;;;;;;3.85;3.40;;;;;;;5.78;95.96;150123.84;11142277;26;20000;-72
2024/04/18 08:19:38;;;;;;;3.90;3.38;;;;;;;6.28;92.85;150249.97;11142606;26;20008;-71
2024/04/18 08:24:40;;;;;;;3.63;3.33;;;;;;;6.83;90.27;150389.00;11142309;26;20008;-71
2024/04/18 08:29:42;;;;;;;3.67;3.30;;;;;;;6.49;89.13;150302.75;11138981;26;20016;-71
2024/04/18 08:34:44;;;;;;;3.95;3.00;;;;;;;6.57;90.21;150322.06;11140321;26;20395;-71
2024/04/18 08:39:48;;;;;;;2.92;2.50;;;;;;;6.96;85.47;150421.19;11139558;26;20085;-71
2024/04/18 08:44:55;;;;;;;2.85;2.55;;;;;;;7.02;85.93;150436.63;11137899;26;20000;-71
2024/04/18 08:49:57;;;;;;;2.97;2.47;;;;;;;7.23;79.43;150489.44;11140160;26;20011;-71
2024/04/18 08:54:59;;;;;;;1.95;1.40;;;;;;;7.56;75.25;150571.84;11139782;26;20327;-71
2024/04/18 09:00:01;;;;;;;1.85;1.52;;;;;;;7.81;72.06;150636.28;11137519;26;20010;-71
2024/04/18 09:05:04;;;;;;;2.05;1.55;;;;;;;7.33;73.86;150513.88;11137958;26;20000;-70
2024/04/18 09:10:08;;;;;;;1.20;1.00;;;;;;;7.99;67.05;150681.38;11139353;26;20488;-71
2024/04/18 09:15:10;;;;;;;1.92;1.05;;;;;;;7.80;67.72;150633.72;11138887;26;20003;-71
2024/04/18 09:20:12;;;;;;;1.38;0.95;;;;;;;7.74;64.95;150618.22;11139691;26;20008;-71
2024/04/18 09:25:14;;;;;;;1.85;0.98;;;;;;;7.85;68.20;150645.31;11138750;26;20040;-71
2024/04/18 09:30:16;;;;;;;2.17;0.93;;;;;;;7.93;66.45;150664.63;11138300;26;20019;-70
2024/04/18 09:35:19;;;;;;;1.23;1.10;;;;;;;7.90;67.43;150658.19;11138188;26;20082;-71
2024/04/18 09:40:25;;;;;;;1.08;0.73;;;;;;;7.76;66.19;150623.41;11138317;26;20089;-71
2024/04/18 09:45:37;;;;;;;2.17;0.70;;;;;;;7.62;67.50;150587.34;11138780;26;20041;-71
2024/04/18 09:50:40;;;;;;;3.00;0.80;;;;;;;7.62;65.98;150586.06;11138624;26;20004;-71
2024/04/18 09:55:43;;;;;;;0.77;0.75;;;;;;;7.73;68.12;150614.38;11137287;26;20403;-71
2024/04/18 10:00:45;;;;;;;0.88;0.75;;;;;;;8.47;67.56;150802.56;11137343;26;20357;-70
2024/04/18 10:05:50;;;;;;;1.00;0.80;;;;;;;9.05;62.09;150948.28;11137253;26;20387;-72
2024/04/18 10:10:53;;;;;;;0.30;0.30;;;;;;;8.11;61.99;150711.03;11138903;26;20000;-71
2024/04/18 10:16:12;;;;;;;0.57;0.40;;;;;;;7.47;63.98;150549.94;11138036;26;20440;-70
2024/04/18 10:21:16;;;;;;;0.32;0.32;;;;;;;7.63;64.40;150588.63;11137533;26;20000;-72
2024/04/18 10:26:35;;;;;;;0.45;0.22;;;;;;;7.86;62.82;150646.59;11137123;26;20011;-71
2024/04/18 10:31:38;;;;;;;0.30;0.28;;;;;;;8.27;58.81;150750.94;11137400;26;20004;-71
2024/04/18 10:36:39;;;;;;;0.52;0.43;;;;;;;9.17;57.69;150977.94;11134991;26;20000;-71
2024/04/18 10:41:45;;;;;;;1.38;0.43;;;;;;;8.97;56.64;150928.91;11135693;26;20344;-72
2024/04/18 10:46:47;;;;;;;0.40;0.40;;;;;;;8.62;58.27;150839.94;11135898;26;20012;-71
2024/04/18 10:51:50;;;;;;;0.55;0.35;;;;;;;8.02;60.23;150687.84;11136003;26;20010;-72
2024/04/18 10:56:52;;;;;;;0.47;0.38;;;;;;;8.10;57.33;150708.41;11135009;26;20004;-71
2024/04/18 11:02:07;;;;;;;0.75;0.40;;;;;;;8.73;57.46;150867.06;11135221;26;20023;-71
2024/04/18 11:07:10;;;;;;;0.35;0.20;;;;;;;9.02;53.95;150941.81;11135016;26;20000;-72
2024/04/18 11:12:14;;;;;;;0.43;0.20;;;;;;;9.14;52.24;150970.19;11135712;26;20005;-72
2024/04/18 11:17:16;;;;;;;0.30;0.30;;;;;;;9.31;50.99;151014.06;11143484;26;20010;-71
2024/04/18 11:22:18;;;;;;;0.65;0.20;;;;;;;9.07;49.90;150954.75;11143446;26;20000;-71
2024/04/18 11:27:25;;;;;;;0.40;0.20;;;;;;;8.77;53.84;150877.38;11143311;26;19996;-72
2024/04/18 11:32:27;;;;;;;0.20;0.20;;;;;;;8.45;51.44;150796.09;11143634;26;20004;-72
2024/04/18 11:37:38;;;;;;;0.75;0.30;;;;;;;8.29;53.46;150757.41;11143561;26;20000;-71
2024/04/18 11:42:41;;;;;;;0.40;0.22;;;;;;;8.29;53.32;150757.41;11143783;26;20340;-70
2024/04/18 11:47:43;;;;;;;0.30;0.30;;;;;;;8.23;54.90;150741.91;11147556;26;20475;-71
2024/04/18 11:52:45;;;;;;;0.30;0.30;;;;;;;7.89;56.81;150655.59;11172886;26;20008;-71
2024/04/18 11:58:02;;;;;;;0.30;0.30;;;;;;;8.37;56.52;150775.47;11141712;26;20001;-72
2024/04/18 12:03:11;;;;;;;0.30;0.30;;;;;;;8.73;54.23;150867.06;11142031;26;20015;-70
2024/04/18 12:08:26;;;;;;;1.15;0.82;;;;;;;9.08;51.66;150957.31;11140579;26;20012;-71
2024/04/18 12:13:29;;;;;;;0.63;0.40;;;;;;;9.72;49.03;151117.25;11141591;26;20026;-71
2024/04/18 12:18:30;;;;;;;0.98;0.25;;;;;;;10.23;47.33;151247.63;11142513;26;20024;-72
2024/04/18 12:23:52;;;;;;;0.20;0.20;;;;;;;10.17;48.16;151230.81;11141075;26;20016;-72
2024/04/18 12:29:08;;;;;;;0.30;0.30;;;;;;;9.61;48.45;151090.19;11117324;26;20070;-72
2024/04/18 12:34:29;;;;;;;0.40;0.30;;;;;;;9.61;50.52;151090.19;11146524;26;20008;-72
2024/04/18 12:39:37;;;;;;;0.40;0.30;;;;;;;9.21;49.87;150988.22;11142617;26;20004;-71
2024/04/18 12:44:57;;;;;;;0.50;0.30;;;;;;;9.27;49.24;151003.75;11142608;26;20007;-71
2024/04/18 12:49:59;;;;;;;0.22;0.20;;;;;;;9.33;50.31;151020.47;11111447;26;20020;-71
2024/04/18 12:55:01;;;;;;;0.52;0.32;;;;;;;10.15;50.26;151225.69;11141280;26;19996;-71
2024/04/18 13:00:05;;;;;;;0.85;0.30;;;;;;;10.48;48.73;151310.91;11140897;26;20016;-71
2024/04/18 13:05:25;;;;;;;0.55;0.43;;;;;;;10.31;47.39;151268.34;11141585;26;20008;-71
2024/04/18 13:10:37;;;;;;;0.82;0.30;;;;;;;9.59;47.07;151086.28;11140193;26;20372;-71
2024/04/18 13:15:56;;;;;;;0.60;0.40;;;;;;;9.33;49.07;151019.19;11139305;26;20005;-71
2024/04/18 13:21:03;;;;;;;0.40;0.40;;;;;;;9.23;49.88;150993.41;11139699;26;20012;-71
2024/04/18 13:26:05;;;;;;;0.20;0.15;;;;;;;8.95;50.10;150923.78;11137375;26;20000;-71
2024/04/18 13:31:12;;;;;;;0.30;0.30;;;;;;;9.00;51.60;150936.66;11139314;26;20004;-72
2024/04/18 13:36:22;;;;;;;0.32;0.30;;;;;;;9.16;48.89;150975.34;11136913;26;20460;-71
2024/04/18 13:41:30;;;;;;;0.40;0.40;;;;;;;9.60;47.70;151088.84;11145166;26;19999;-72
2024/04/18 13:46:48;;;;;;;1.02;0.30;;;;;;;9.71;46.23;151115.97;11159157;26;20412;-73
2024/04/18 13:52:09;;;;;;;0.57;0.30;;;;;;;9.71;47.87;151114.69;11175282;26;20016;-72
2024/04/18 13:57:16;;;;;;;0.52;0.40;;;;;;;9.59;49.20;151086.28;11192840;26;20435;-73
2024/04/18 14:02:19;;;;;;;0.32;0.30;;;;;;;9.74;46.71;151122.41;11176325;26;20004;-73
2024/04/18 14:07:21;;;;;;;0.25;0.25;;;;;;;10.05;47.25;151202.44;11135662;26;20037;-73
2024/04/18 14:12:22;;;;;;;0.30;0.30;;;;;;;10.03;47.06;151197.25;11195921;26;19996;-75
2024/04/18 14:22:50;;;;;;;0.20;0.20;;;;;;;10.31;46.01;151268.34;11212382;26;20008;-74
2024/04/18 14:27:52;;;;;;;0.68;0.40;;;;;;;10.49;45.51;151313.53;11177628;26;20059;-74
2024/04/18 14:33:14;;;;;;;0.40;0.40;;;;;;;10.46;45.31;151305.75;11138108;26;20004;-74
2024/04/18 14:38:17;;;;;;;1.45;0.40;;;;;;;10.38;44.85;151283.81;11139189;26;20008;-73
2024/04/18 14:43:19;;;;;;;0.55;0.40;;;;;;;10.33;46.32;151272.19;11137479;26;20045;-73
2024/04/18 14:48:20;;;;;;;0.40;0.32;;;;;;;10.41;44.46;151291.56;11141324;26;20008;-73
2024/04/18 14:53:23;;;;;;;0.35;0.30;;;;;;;10.18;45.03;151233.41;11146527;26;20468;-74
2024/04/18 14:58:42;;;;;;;0.63;0.40;;;;;;;10.30;45.87;151265.72;11147499;26;20027;-74
2024/04/18 15:03:54;;;;;;;0.45;0.45;;;;;;;9.70;47.96;151112.13;11145891;26;20004;-73
2024/04/18 15:08:56;;;;;;;0.70;0.50;;;;;;;9.64;46.99;151096.59;11143680;26;20382;-73
2024/04/18 15:13:58;;;;;;;0.55;0.50;;;;;;;9.64;46.14;151096.59;11145013;26;20381;-75
2024/04/18 15:19:00;;;;;;;3.58;3.10;;;;;;;9.66;45.36;151103.09;11145511;26;20022;-75
2024/04/18 15:24:22;;;;;;;0.50;0.50;;;;;;;9.66;46.19;151101.78;11145513;26;20077;-75
2024/04/18 15:29:33;;;;;;;0.60;0.47;;;;;;;9.51;47.46;151064.34;11142883;26;20008;-74
2024/04/18 15:34:53;;;;;;;0.77;0.63;;;;;;;9.50;47.00;151063.06;11145368;26;20423;-74
2024/04/18 15:40:32;;;;;;;0.95;0.65;;;;;;;9.74;46.62;151123.72;11142855;26;20004;-73
2024/04/18 15:45:39;;;;;;;0.50;0.43;;;;;;;9.75;47.30;151126.31;11146045;26;20008;-74
2024/04/18 15:50:56;;;;;;;0.70;0.70;;;;;;;9.92;47.50;151168.91;11144884;26;20012;-73
2024/04/18 15:56:05;;;;;;;0.77;0.50;;;;;;;9.91;46.27;151166.28;11144523;26;20089;-74
2024/04/18 16:01:27;;;;;;;0.93;0.40;;;;;;;9.65;44.37;151099.19;11137948;26;20012;-73
2024/04/18 16:06:44;;;;;;;1.23;0.50;;;;;;;9.55;47.49;151074.66;11142220;26;20024;-73
2024/04/18 16:11:46;;;;;;;0.75;0.75;;;;;;;9.46;46.51;151051.44;11143261;26;20000;-73
2024/04/18 16:17:04;;;;;;;;;;;;;;;9.21;49.26;150988.22;11143796;26;20016;-73
2024/04/18 16:22:12;;;;;;;0.63;0.40;;;;;;;9.14;48.25;150970.19;11143301;26;19933;-73
2024/04/18 16:27:23;;;;;;;0.93;0.60;;;;;;;9.07;49.72;150954.75;11140154;26;20000;-73
2024/04/18 16:32:34;;;;;;;0.28;0.22;;;;;;;9.20;48.94;150986.94;11142825;26;20020;-74
2024/04/18 16:37:39;;;;;;;0.40;0.40;;;;;;;9.06;47.67;150950.84;11141323;26;20000;-71
2024/04/18 16:42:47;;;;;;;0.43;0.40;;;;;;;9.15;48.37;150972.78;11140340;26;20005;-72
2024/04/18 16:47:50;;;;;;;0.28;0.28;;;;;;;9.10;48.16;150962.44;11140131;26;20070;-72
2024/04/18 16:52:52;;;;;;;0.70;0.40;;;;;;;9.09;48.49;150959.88;11144280;26;20467;-75
2024/04/18 16:58:16;;;;;;;0.85;0.40;;;;;;;8.90;48.74;150910.88;11147712;26;20048;-72
2024/04/18 17:03:30;;;;;;;0.60;0.50;;;;;;;8.96;48.76;150925.06;11143593;26;20016;-71
2024/04/18 17:08:32;;;;;;;3.80;0.40;;;;;;;8.80;48.03;150885.06;11143030;26;20005;-71
2024/04/18 17:13:34;;;;;;;0.68;0.55;;;;;;;8.65;50.62;150847.69;11141948;26;20029;-72
2024/04/18 17:18:43;;;;;;;0.90;0.40;;;;;;;8.39;50.77;150781.94;11140384;26;20456;-71
2024/04/18 17:23:45;;;;;;;0.50;0.45;;;;;;;8.42;51.97;150789.69;11141294;26;20008;-72
2024/04/18 17:28:47;;;;;;;1.15;0.40;;;;;;;8.26;53.18;150748.38;11144787;26;20036;-72
2024/04/18 17:34:09;;;;;;;0.75;0.40;;;;;;;8.52;51.35;150814.19;11141561;26;20472;-72
2024/04/18 17:39:16;;;;;;;0.70;0.40;;;;;;;8.56;51.71;150824.50;11143375;26;20029;-72
2024/04/18 17:44:18;;;;;;;0.93;0.77;;;;;;;8.44;52.10;150794.81;11141229;26;20011;-72
2024/04/18 17:49:26;;;;;;;1.55;1.15;;;;;;;8.18;54.32;150729.03;11142398;26;20005;-72
2024/04/18 17:54:29;;;;;;;1.05;0.50;;;;;;;8.33;53.91;150766.44;11141826;26;20008;-72
2024/04/18 17:59:31;;;;;;;1.00;0.45;;;;;;;8.15;55.63;150720.06;11140419;26;20045;-72
2024/04/18 18:04:33;;;;;;;0.40;0.35;;;;;;;8.07;55.58;150700.72;11142216;26;20007;-72
2024/04/18 18:09:35;;;;;;;0.98;0.52;;;;;;;7.91;56.58;150659.47;11142619;26;20014;-71
2024/04/18 18:14:37;;;;;;;1.30;1.05;;;;;;;7.64;57.03;150592.47;11142870;26;20008;-71
2024/04/18 18:19:39;;;;;;;1.42;0.50;;;;;;;7.50;57.28;150556.41;11142811;26;20018;-72
2024/04/18 18:24:41;;;;;;;0.40;0.40;;;;;;;7.28;58.23;150502.31;11146119;26;20015;-71
2024/04/18 18:29:44;;;;;;;2.03;0.60;;;;;;;7.11;58.91;150457.22;11151685;26;20019;-72
2024/04/18 18:34:47;;;;;;;1.40;1.10;;;;;;;7.19;58.29;150479.13;11150629;26;20026;-74
2024/04/18 18:39:49;;;;;;;1.23;1.10;;;;;;;7.10;58.64;150454.66;11151010;26;20344;-72
2024/04/18 18:44:51;;;;;;;1.38;1.00;;;;;;;7.02;59.21;150435.34;11150145;26;20004;-71
2024/04/18 18:49:53;;;;;;;0.98;0.57;;;;;;;6.95;59.54;150417.28;11150313;26;20005;-72
2024/04/18 18:54:55;;;;;;;0.95;0.63;;;;;;;6.80;60.72;150381.25;11150323;26;20007;-72
2024/04/18 18:59:57;;;;;;;1.27;0.98;;;;;;;6.73;61.21;150363.25;11148051;26;20019;-72
2024/04/18 19:04:59;;;;;;;0.80;0.70;;;;;;;6.49;62.20;150301.47;11147813;26;19996;-74
2024/04/18 19:10:01;;;;;;;1.20;0.70;;;;;;;6.50;62.66;150304.03;11150005;26;20004;-73
2024/04/18 19:15:03;;;;;;;0.80;0.60;;;;;;;6.39;63.29;150277.00;11148716;26;20013;-73
2024/04/18 19:20:05;;;;;;;1.85;0.60;;;;;;;6.25;64.42;150241.00;11148543;26;20420;-73
2024/04/18 19:25:07;;;;;;;1.60;0.70;;;;;;;5.94;66.45;150163.78;11149524;26;20015;-72
2024/04/18 19:30:09;;;;;;;2.05;1.05;;;;;;;5.78;67.52;150122.56;11147529;26;20360;-73
2024/04/18 19:35:11;;;;;;;1.10;0.90;;;;;;;5.74;66.57;150113.53;11149050;26;20000;-72
2024/04/18 19:40:15;;;;;;;1.40;0.90;;;;;;;5.92;65.78;150157.34;11147893;26;20023;-71
2024/04/18 19:45:36;;;;;;;1.38;0.60;;;;;;;6.02;64.97;150183.03;11148799;26;20000;-73
2024/04/18 19:50:39;;;;;;;0.98;0.60;;;;;;;5.99;65.81;150176.66;11147966;26;20008;-73
2024/04/18 19:55:59;;;;;;;0.70;0.60;;;;;;;5.94;65.74;150162.50;11148239;26;20047;-72
2024/04/18 20:01:01;;;;;;;0.98;0.73;;;;;;;6.00;65.02;150177.94;11146840;26;20011;-72
2024/04/18 20:06:07;;;;;;;1.48;0.65;;;;;;;5.84;66.00;150137.97;11148315;26;20008;-72
2024/04/18 20:11:26;;;;;;;1.42;0.60;;;;;;;5.78;66.45;150123.84;11144841;26;20069;-72
2024/04/18 20:16:27;;;;;;;0.73;0.70;;;;;;;5.71;67.16;150104.53;11145299;26;20008;-72
2024/04/18 20:21:44;;;;;;;1.65;0.90;;;;;;;5.69;66.86;150100.69;11145438;26;20012;-71
2024/04/18 20:26:46;;;;;;;2.00;0.60;;;;;;;5.70;66.33;150103.25;11144227;26;20071;-71
2024/04/18 20:31:48;;;;;;;0.80;0.80;;;;;;;5.62;66.84;150082.66;11142348;26;20019;-71
2024/04/18 20:36:50;;;;;;;1.10;0.60;;;;;;;5.70;65.74;150101.97;11142382;26;20004;-71
2024/04/18 20:41:53;;;;;;;1.52;0.73;;;;;;;5.74;65.34;150113.53;11142024;26;20340;-71
2024/04/18 20:46:55;;;;;;;1.15;0.68;;;;;;;5.73;65.81;150109.69;11141925;26;19992;-71
2024/04/18 20:51:56;;;;;;;1.25;0.70;;;;;;;5.57;65.72;150069.81;11143191;26;20012;-72
2024/04/18 20:57:18;;;;;;;1.02;0.68;;;;;;;5.54;65.75;150063.41;11142401;26;19992;-71
2024/04/18 21:02:21;;;;;;;1.27;0.60;;;;;;;5.54;65.65;150063.41;11142843;26;20048;-70
2024/04/18 21:07:24;;;;;;;0.88;0.70;;;;;;;5.54;65.60;150063.41;11142083;26;20025;-71
2024/04/18 21:12:26;;;;;;;3.92;0.60;;;;;;;5.69;64.59;150099.41;11145097;26;20000;-73
2024/04/18 21:17:28;;;;;;;1.30;0.60;;;;;;;5.70;65.23;150101.97;11141197;26;20467;-71
2024/04/18 21:22:30;;;;;;;1.15;1.05;;;;;;;5.76;64.02;150118.72;11140673;26;20040;-71
2024/04/18 21:27:32;;;;;;;0.88;0.70;;;;;;;5.76;64.26;150117.44;11144171;26;20018;-72
2024/04/18 21:32:34;;;;;;;0.73;0.73;;;;;;;5.77;64.19;150120.00;11139567;26;20032;-72
2024/04/18 21:37:36;;;;;;;0.70;0.60;;;;;;;5.86;63.67;150143.16;11140673;26;20004;-72
2024/04/18 21:42:38;;;;;;;1.83;0.60;;;;;;;5.95;63.70;150165.06;11140831;26;20451;-72
2024/04/18 21:47:40;;;;;;;1.55;0.80;;;;;;;5.96;62.80;150168.91;11138902;26;19996;-72
2024/04/18 21:52:42;;;;;;;1.30;0.60;;;;;;;6.17;62.21;150221.69;11140593;26;20019;-71
2024/04/18 21:57:44;;;;;;;2.17;0.60;;;;;;;6.16;62.11;150217.81;11136637;26;20006;-71
2024/04/18 22:02:46;;;;;;;1.17;0.60;;;;;;;6.04;63.13;150189.50;11135146;26;20499;-71
2024/04/18 22:07:48;;;;;;;1.23;0.63;;;;;;;6.21;62.97;150230.69;11136898;26;20064;-71
2024/04/18 22:12:50;;;;;;;0.90;0.63;;;;;;;6.19;63.42;150226.81;11140066;26;20000;-70
2024/04/18 22:17:52;;;;;;;0.88;0.47;;;;;;;6.34;63.60;150262.88;11138248;26;20474;-72
2024/04/18 22:22:54;;;;;;;0.68;0.65;;;;;;;6.37;63.66;150271.84;11137951;26;20376;-71
2024/04/18 22:27:55;;;;;;;0.80;0.80;;;;;;;6.49;63.61;150301.47;11138260;26;20011;-71
2024/04/18 22:32:57;;;;;;;1.20;0.93;;;;;;;6.38;65.18;150274.44;11136477;26;20089;-71
2024/04/18 22:37:59;;;;;;;1.20;0.80;;;;;;;6.44;65.89;150289.88;11135931;26;20007;-71
2024/04/18 22:43:01;;;;;;;1.20;1.10;;;;;;;6.41;72.29;150280.84;11136559;26;20020;-70
2024/04/18 22:48:03;;;;;;;5.18;1.10;;;;;;;6.17;77.54;150220.41;11137379;26;20074;-70
2024/04/18 22:53:05;;;;;;;1.48;1.20;;;;;;;5.99;77.52;150175.38;11136342;26;20031;-72
2024/04/18 22:58:08;;;;;;;1.55;1.20;;;;;;;5.89;76.46;150150.88;11136880;26;20000;-71
2024/04/18 23:03:10;;;;;;;1.55;1.20;;;;;;;5.95;76.19;150165.06;11136698;26;20026;-70
2024/04/18 23:08:12;;;;;;;1.30;1.20;;;;;;;5.98;76.08;150172.78;11134525;26;20077;-70
2024/04/18 23:13:14;;;;;;;2.20;1.02;;;;;;;6.04;75.51;150189.50;11141362;26;20040;-70
2024/04/18 23:18:18;;;;;;;1.25;1.10;;;;;;;6.07;76.92;150197.25;11143601;26;20008;-70
2024/04/18 23:23:20;;;;;;;1.98;1.65;;;;;;;6.08;77.31;150198.53;11141529;26;20000;-70
2024/04/18 23:28:22;;;;;;;1.17;1.08;;;;;;;6.08;79.85;150198.53;11141851;26;20011;-72
2024/04/18 23:33:24;;;;;;;1.88;1.77;;;;;;;6.16;80.85;150219.09;11140975;26;20073;-71
2024/04/18 23:38:26;;;;;;;1.83;1.20;;;;;;;6.13;82.42;150211.38;11140276;26;20011;-71
2024/04/18 23:43:28;;;;;;;1.42;1.33;;;;;;;5.98;81.35;150174.09;11141403;26;20039;-70